Time;durP1;ratioP1;P1;durP2;ratioP2;P2;SDS_P1;SDS_P2;PMS_P1;PMS_P2;Temp;Humidity;BMP_temperature;BMP_pressure;BME280_temperature;BME280_humidity;BME280_pressure;Samples;Min_cycle;Max_cycle;Signal;HPM_P1;HPM_P2
2020/12/18 00:01:25;;;;;;;146.20;43.93;;;;;;;;;;4959278;28;20200;-77
2020/12/18 00:03:52;;;;;;;135.37;36.90;;;;;;;;;;4957781;28;20544;-77
2020/12/18 00:06:19;;;;;;;115.93;38.27;;;;;;;;;;4957995;28;20210;-77
2020/12/18 00:08:45;;;;;;;113.77;35.90;;;;;;;;;;4958762;28;20176;-78
2020/12/18 00:11:19;;;;;;;133.67;36.33;;;;;;;;;;4959496;28;20189;-78
2020/12/18 00:13:45;;;;;;;126.57;37.67;;;;;;;;;;4959373;28;20194;-78
2020/12/18 00:16:11;;;;;;;111.10;37.30;;;;;;;;;;4958462;28;20210;-77
2020/12/18 00:18:37;;;;;;;106.83;36.23;;;;;;;;;;4958559;28;20656;-78
2020/12/18 00:21:04;;;;;;;119.63;39.17;;;;;;;;;;4958812;28;20201;-78
2020/12/18 00:23:30;;;;;;;123.40;36.20;;;;;;;;;;4958546;28;20190;-78
2020/12/18 00:25:57;;;;;;;112.50;35.70;;;;;;;;;;4958441;28;20220;-78
2020/12/18 00:28:23;;;;;;;104.27;33.20;;;;;;;;;;4960085;28;20580;-79
2020/12/18 00:30:49;;;;;;;99.23;31.13;;;;;;;;;;4959737;28;20192;-79
2020/12/18 00:33:15;;;;;;;105.67;34.40;;;;;;;;;;4960368;28;20189;-79
2020/12/18 00:35:42;;;;;;;102.27;34.93;;;;;;;;;;4959879;28;20205;-78
2020/12/18 00:38:08;;;;;;;114.37;34.70;;;;;;;;;;4957279;28;20210;-77
2020/12/18 00:40:34;;;;;;;100.37;32.97;;;;;;;;;;4958802;28;20209;-78
2020/12/18 00:43:00;;;;;;;100.03;32.30;;;;;;;;;;4958263;28;20181;-78
2020/12/18 00:45:26;;;;;;;90.53;32.33;;;;;;;;;;4957095;28;20211;-77
2020/12/18 00:47:53;;;;;;;86.47;32.80;;;;;;;;;;4958728;28;20192;-77
2020/12/18 00:50:19;;;;;;;82.60;31.23;;;;;;;;;;4958430;28;20206;-78
2020/12/18 00:52:45;;;;;;;89.10;31.50;;;;;;;;;;4958407;28;20300;-78
2020/12/18 00:55:11;;;;;;;95.60;31.33;;;;;;;;;;4958845;28;20694;-77
2020/12/18 00:57:37;;;;;;;79.27;30.60;;;;;;;;;;4956874;28;20672;-78
2020/12/18 01:00:07;;;;;;;94.67;31.43;;;;;;;;;;4958665;28;20189;-77
2020/12/18 01:02:33;;;;;;;88.43;32.50;;;;;;;;;;4957031;28;20209;-77
2020/12/18 01:04:59;;;;;;;107.90;31.93;;;;;;;;;;4958605;28;20211;-78
2020/12/18 01:07:26;;;;;;;104.07;32.00;;;;;;;;;;4957739;28;20187;-77
2020/12/18 01:09:52;;;;;;;111.10;32.30;;;;;;;;;;4958834;28;20182;-77
2020/12/18 01:12:18;;;;;;;97.63;33.27;;;;;;;;;;4957683;28;20240;-77
2020/12/18 01:14:44;;;;;;;100.17;31.60;;;;;;;;;;4955825;28;20288;-77
2020/12/18 01:17:10;;;;;;;85.77;29.93;;;;;;;;;;4957496;28;20181;-77
2020/12/18 01:19:39;;;;;;;87.97;29.37;;;;;;;;;;4957821;28;20190;-77
2020/12/18 01:22:05;;;;;;;86.77;28.47;;;;;;;;;;4957364;28;20205;-78
2020/12/18 01:24:31;;;;;;;117.90;38.43;;;;;;;;;;4956404;28;20236;-78
2020/12/18 01:26:57;;;;;;;111.07;33.03;;;;;;;;;;4957849;28;20185;-78
2020/12/18 01:29:23;;;;;;;83.50;30.03;;;;;;;;;;4957810;28;20181;-78
2020/12/18 01:31:49;;;;;;;82.33;29.63;;;;;;;;;;4958052;28;20597;-77
2020/12/18 01:34:15;;;;;;;139.87;48.70;;;;;;;;;;4956966;28;20189;-78
2020/12/18 01:36:42;;;;;;;99.53;33.33;;;;;;;;;;4957269;28;20204;-78
2020/12/18 01:39:08;;;;;;;146.43;52.50;;;;;;;;;;4958117;28;20218;-77
2020/12/18 01:41:35;;;;;;;163.17;65.93;;;;;;;;;;4957678;28;20200;-77
2020/12/18 01:44:01;;;;;;;102.30;32.07;;;;;;;;;;4963659;28;20558;-77
2020/12/18 01:46:28;;;;;;;85.43;31.97;;;;;;;;;;4959335;28;20204;-78
2020/12/18 01:48:54;;;;;;;76.80;30.00;;;;;;;;;;4957326;28;21157;-77
2020/12/18 01:51:20;;;;;;;84.87;30.87;;;;;;;;;;4959002;28;20554;-77
2020/12/18 01:53:47;;;;;;;203.97;75.83;;;;;;;;;;4958906;28;20612;-77
2020/12/18 01:56:13;;;;;;;119.23;39.37;;;;;;;;;;4957280;28;20205;-77
2020/12/18 01:58:40;;;;;;;150.80;55.23;;;;;;;;;;4958161;28;20185;-78
2020/12/18 02:01:07;;;;;;;103.40;35.83;;;;;;;;;;4958343;28;20201;-77
2020/12/18 02:03:33;;;;;;;215.03;71.00;;;;;;;;;;4958949;28;20189;-77
2020/12/18 02:06:04;;;;;;;108.13;35.40;;;;;;;;;;4959389;28;20264;-77
2020/12/18 02:08:30;;;;;;;141.10;47.17;;;;;;;;;;4958741;28;20213;-78
2020/12/18 02:10:57;;;;;;;113.83;42.07;;;;;;;;;;4957600;28;20188;-78
2020/12/18 02:13:24;;;;;;;128.80;40.63;;;;;;;;;;4958337;28;20185;-77
2020/12/18 02:15:51;;;;;;;134.80;46.33;;;;;;;;;;4956541;28;20212;-77
2020/12/18 02:18:17;;;;;;;129.23;40.80;;;;;;;;;;4957468;28;20550;-77
2020/12/18 02:20:44;;;;;;;146.77;55.30;;;;;;;;;;4957663;28;20766;-77
2020/12/18 02:23:10;;;;;;;122.57;34.27;;;;;;;;;;4958192;28;20174;-77
2020/12/18 02:25:38;;;;;;;105.43;38.87;;;;;;;;;;4956670;28;20700;-78
2020/12/18 02:28:04;;;;;;;108.20;36.00;;;;;;;;;;4961719;28;20182;-77
2020/12/18 02:30:30;;;;;;;74.87;31.60;;;;;;;;;;4958347;28;20191;-78
2020/12/18 02:32:57;;;;;;;74.03;29.90;;;;;;;;;;4954948;28;20182;-78
2020/12/18 02:35:23;;;;;;;69.73;30.90;;;;;;;;;;4960547;28;20201;-78
2020/12/18 02:37:52;;;;;;;76.33;30.47;;;;;;;;;;4960565;28;20188;-78
2020/12/18 02:40:18;;;;;;;79.93;31.53;;;;;;;;;;4962705;28;20687;-78
2020/12/18 02:42:45;;;;;;;106.33;38.97;;;;;;;;;;4962867;28;20184;-78
2020/12/18 02:45:11;;;;;;;83.83;34.00;;;;;;;;;;4962018;28;20202;-78
2020/12/18 02:47:37;;;;;;;69.80;31.40;;;;;;;;;;4960566;28;20190;-78
2020/12/18 02:50:03;;;;;;;75.20;30.23;;;;;;;;;;4960315;28;20714;-78
2020/12/18 02:52:29;;;;;;;126.80;39.80;;;;;;;;;;4961415;28;20181;-78
2020/12/18 02:54:55;;;;;;;105.43;33.03;;;;;;;;;;4961432;28;20209;-78
2020/12/18 02:57:21;;;;;;;107.87;32.93;;;;;;;;;;4961039;28;20206;-78
2020/12/18 02:59:47;;;;;;;83.73;31.53;;;;;;;;;;4961792;28;20208;-78
2020/12/18 03:02:13;;;;;;;226.67;79.83;;;;;;;;;;4960065;28;20249;-78
2020/12/18 03:04:39;;;;;;;83.47;31.27;;;;;;;;;;4961138;28;20182;-79
2020/12/18 03:07:05;;;;;;;97.30;32.53;;;;;;;;;;4960887;28;20324;-78
2020/12/18 03:09:32;;;;;;;116.33;43.33;;;;;;;;;;4962777;28;20187;-78
2020/12/18 03:11:58;;;;;;;104.10;41.10;;;;;;;;;;4974128;28;20182;-78
2020/12/18 03:14:25;;;;;;;83.43;29.00;;;;;;;;;;4963241;28;20185;-79
2020/12/18 03:16:51;;;;;;;130.93;40.37;;;;;;;;;;4961867;28;20189;-78
2020/12/18 03:19:17;;;;;;;86.13;34.57;;;;;;;;;;4961874;28;20178;-78
2020/12/18 03:21:43;;;;;;;72.57;26.63;;;;;;;;;;4961443;28;20201;-78
2020/12/18 03:24:10;;;;;;;85.50;28.10;;;;;;;;;;4961172;28;20184;-78
2020/12/18 03:26:36;;;;;;;146.90;48.83;;;;;;;;;;4987157;23;20759;-80
2020/12/18 03:29:02;;;;;;;105.60;28.07;;;;;;;;;;4974375;28;20177;-80
2020/12/18 03:31:28;;;;;;;81.70;27.50;;;;;;;;;;4982237;28;20179;-80
2020/12/18 03:33:54;;;;;;;103.93;32.27;;;;;;;;;;4972140;28;20177;-80
2020/12/18 03:36:20;;;;;;;75.00;27.33;;;;;;;;;;4979984;28;20208;-80
2020/12/18 03:38:47;;;;;;;70.63;26.50;;;;;;;;;;4979071;28;20256;-80
2020/12/18 03:41:13;;;;;;;75.10;27.93;;;;;;;;;;4979775;28;20232;-80
2020/12/18 03:43:39;;;;;;;90.00;34.60;;;;;;;;;;4965108;28;20180;-80
2020/12/18 03:46:06;;;;;;;70.37;27.63;;;;;;;;;;4969354;28;20224;-80
2020/12/18 03:48:32;;;;;;;62.10;25.60;;;;;;;;;;4979909;28;20184;-79
2020/12/18 03:50:58;;;;;;;55.63;24.37;;;;;;;;;;4978443;28;20271;-80
2020/12/18 03:53:24;;;;;;;44.73;21.60;;;;;;;;;;4979893;28;20210;-80
2020/12/18 03:55:50;;;;;;;37.40;20.27;;;;;;;;;;4979486;28;20747;-79
2020/12/18 03:58:16;;;;;;;33.37;20.03;;;;;;;;;;4978281;28;20178;-80
2020/12/18 04:00:43;;;;;;;36.33;20.80;;;;;;;;;;4979524;28;20685;-80
2020/12/18 04:03:09;;;;;;;31.87;18.77;;;;;;;;;;4979492;28;20268;-80
2020/12/18 04:05:35;;;;;;;34.30;20.40;;;;;;;;;;4979344;28;20173;-80
2020/12/18 04:08:01;;;;;;;32.10;19.77;;;;;;;;;;4978929;28;20185;-80
2020/12/18 04:10:28;;;;;;;31.97;19.07;;;;;;;;;;4979533;28;20180;-80
2020/12/18 04:12:55;;;;;;;27.50;17.47;;;;;;;;;;4979255;28;20181;-80
2020/12/18 04:15:21;;;;;;;28.53;17.73;;;;;;;;;;4977990;28;20177;-80
2020/12/18 04:17:47;;;;;;;27.17;17.40;;;;;;;;;;4978915;28;20573;-80
2020/12/18 04:20:13;;;;;;;26.53;16.93;;;;;;;;;;4979986;28;20180;-79
2020/12/18 04:22:39;;;;;;;26.60;17.20;;;;;;;;;;4975924;28;20570;-80
2020/12/18 04:25:06;;;;;;;22.60;16.27;;;;;;;;;;4980303;28;20177;-80
2020/12/18 04:27:32;;;;;;;21.63;15.27;;;;;;;;;;4977581;28;20216;-79
2020/12/18 04:29:59;;;;;;;19.83;14.83;;;;;;;;;;4979460;28;20216;-80
2020/12/18 04:32:25;;;;;;;20.93;15.60;;;;;;;;;;4977766;28;20188;-79
2020/12/18 04:34:51;;;;;;;19.47;14.53;;;;;;;;;;4977832;28;20186;-80
2020/12/18 04:37:17;;;;;;;20.00;14.77;;;;;;;;;;4978942;28;20205;-80
2020/12/18 04:39:43;;;;;;;19.77;14.73;;;;;;;;;;4977963;28;20187;-80
2020/12/18 04:42:09;;;;;;;20.83;15.50;;;;;;;;;;4979069;28;20205;-80
2020/12/18 04:44:36;;;;;;;21.97;16.20;;;;;;;;;;4978834;28;20204;-80
2020/12/18 04:47:02;;;;;;;22.43;16.00;;;;;;;;;;4961269;28;20208;-80
2020/12/18 04:49:29;;;;;;;22.93;16.57;;;;;;;;;;4977006;28;20208;-79
2020/12/18 04:51:56;;;;;;;23.03;16.17;;;;;;;;;;4977239;28;20667;-79
2020/12/18 04:54:23;;;;;;;27.53;16.73;;;;;;;;;;4979017;28;20216;-80
2020/12/18 04:56:51;;;;;;;25.73;17.43;;;;;;;;;;4977469;28;20213;-78
2020/12/18 04:59:20;;;;;;;22.70;15.73;;;;;;;;;;4978512;28;20175;-79
2020/12/18 05:01:46;;;;;;;21.50;16.00;;;;;;;;;;4955109;28;20213;-80
2020/12/18 05:04:14;;;;;;;25.60;16.87;;;;;;;;;;4947373;28;20648;-79
2020/12/18 05:06:40;;;;;;;23.87;16.17;;;;;;;;;;4950408;28;20213;-79
2020/12/18 05:09:06;;;;;;;22.70;16.60;;;;;;;;;;4973860;28;20173;-80
2020/12/18 05:11:32;;;;;;;25.33;17.07;;;;;;;;;;4977914;28;20176;-79
2020/12/18 05:13:58;;;;;;;30.33;19.43;;;;;;;;;;4978969;28;20192;-79
2020/12/18 05:16:24;;;;;;;22.70;16.53;;;;;;;;;;4977460;28;20679;-79
2020/12/18 05:18:51;;;;;;;26.17;16.87;;;;;;;;;;4978710;28;20201;-78
2020/12/18 05:21:18;;;;;;;27.07;17.43;;;;;;;;;;4970178;28;20205;-79
2020/12/18 05:23:44;;;;;;;24.47;16.60;;;;;;;;;;4968394;28;20207;-80
2020/12/18 05:26:11;;;;;;;23.97;16.87;;;;;;;;;;4978145;28;20220;-79
2020/12/18 05:28:41;;;;;;;23.03;16.50;;;;;;;;;;4978560;28;20185;-80
2020/12/18 05:31:11;;;;;;;27.60;17.17;;;;;;;;;;4977270;28;20207;-79
2020/12/18 05:33:37;;;;;;;26.10;17.07;;;;;;;;;;4978288;28;20181;-78
2020/12/18 05:36:03;;;;;;;28.53;18.43;;;;;;;;;;4974644;28;20292;-79
2020/12/18 05:38:30;;;;;;;28.70;17.70;;;;;;;;;;4975202;28;20238;-79
2020/12/18 05:41:00;;;;;;;26.77;17.70;;;;;;;;;;4978490;28;20204;-79
2020/12/18 05:43:33;;;;;;;28.83;18.13;;;;;;;;;;4978116;28;20181;-79
2020/12/18 05:46:00;;;;;;;28.87;18.30;;;;;;;;;;4978573;28;20211;-80
2020/12/18 05:48:26;;;;;;;33.93;19.40;;;;;;;;;;4978282;28;20275;-80
2020/12/18 05:50:53;;;;;;;27.93;17.17;;;;;;;;;;4977930;28;20212;-80
2020/12/18 05:53:19;;;;;;;32.27;18.63;;;;;;;;;;4977147;28;20185;-79
2020/12/18 05:55:45;;;;;;;36.83;19.53;;;;;;;;;;4978851;28;20208;-79
2020/12/18 05:58:14;;;;;;;31.53;18.23;;;;;;;;;;4976473;28;20642;-79
2020/12/18 06:00:41;;;;;;;29.87;18.67;;;;;;;;;;4977790;28;20184;-78
2020/12/18 06:03:11;;;;;;;35.43;18.97;;;;;;;;;;4976808;28;20227;-78
2020/12/18 06:05:38;;;;;;;32.03;19.10;;;;;;;;;;4978130;28;20323;-79
2020/12/18 06:08:15;;;;;;;31.30;18.67;;;;;;;;;;4976712;28;20173;-78
2020/12/18 06:10:41;;;;;;;30.93;19.63;;;;;;;;;;4978427;28;20308;-79
2020/12/18 06:13:08;;;;;;;33.17;18.87;;;;;;;;;;4977968;28;20180;-78
2020/12/18 06:15:35;;;;;;;31.70;18.57;;;;;;;;;;4978828;28;20176;-78
2020/12/18 06:18:03;;;;;;;30.10;18.57;;;;;;;;;;4977624;28;20168;-78
2020/12/18 06:20:34;;;;;;;29.67;18.47;;;;;;;;;;4976733;28;20264;-78
2020/12/18 06:23:01;;;;;;;29.60;18.40;;;;;;;;;;4977123;28;20175;-79
2020/12/18 06:25:27;;;;;;;26.77;17.77;;;;;;;;;;4978470;28;20236;-78
2020/12/18 06:27:57;;;;;;;30.73;18.90;;;;;;;;;;4978442;28;20203;-79
2020/12/18 06:30:23;;;;;;;29.17;18.53;;;;;;;;;;4978577;28;20309;-78
2020/12/18 06:32:50;;;;;;;39.23;19.60;;;;;;;;;;4977835;28;20185;-79
2020/12/18 06:35:26;;;;;;;32.40;19.70;;;;;;;;;;4961093;28;20561;-78
2020/12/18 06:37:53;;;;;;;38.93;20.17;;;;;;;;;;4978115;28;20172;-78
2020/12/18 06:40:32;;;;;;;35.67;20.77;;;;;;;;;;4977838;28;20187;-79
2020/12/18 06:42:58;;;;;;;29.17;19.70;;;;;;;;;;4947536;28;20173;-78
2020/12/18 06:45:28;;;;;;;41.77;21.37;;;;;;;;;;4944395;28;20176;-79
2020/12/18 06:47:54;;;;;;;32.00;20.40;;;;;;;;;;4941514;28;20192;-79
2020/12/18 06:50:21;;;;;;;36.40;21.37;;;;;;;;;;4970479;28;20203;-78
2020/12/18 06:52:50;;;;;;;36.73;20.67;;;;;;;;;;4978004;28;20181;-79
2020/12/18 06:55:34;;;;;;;37.50;20.33;;;;;;;;;;4978640;28;20239;-80
2020/12/18 06:58:09;;;;;;;36.53;18.43;;;;;;;;;;4977566;28;20185;-78
2020/12/18 07:00:56;;;;;;;51.97;20.50;;;;;;;;;;4978074;28;20603;-78
2020/12/18 07:03:38;;;;;;;46.63;20.33;;;;;;;;;;4977317;28;20227;-78
2020/12/18 07:06:06;;;;;;;32.90;19.13;;;;;;;;;;4978405;28;20196;-79
2020/12/18 07:08:32;;;;;;;34.90;18.50;;;;;;;;;;4977426;28;20177;-78
2020/12/18 07:11:03;;;;;;;46.23;20.27;;;;;;;;;;4976443;28;20631;-78
2020/12/18 07:13:30;;;;;;;40.60;18.97;;;;;;;;;;4978983;28;20680;-79
2020/12/18 07:16:10;;;;;;;41.47;19.20;;;;;;;;;;4977360;28;20239;-79
2020/12/18 07:18:40;;;;;;;40.20;20.00;;;;;;;;;;4979530;28;20176;-78
2020/12/18 07:21:06;;;;;;;51.77;19.20;;;;;;;;;;4975027;28;20200;-78
2020/12/18 07:23:33;;;;;;;31.23;18.70;;;;;;;;;;4951606;28;20712;-78
2020/12/18 07:25:59;;;;;;;32.10;19.93;;;;;;;;;;4969142;28;20324;-79
2020/12/18 07:28:26;;;;;;;37.90;20.27;;;;;;;;;;4978844;28;20176;-78
2020/12/18 07:30:55;;;;;;;32.60;19.20;;;;;;;;;;4980025;28;20184;-78
2020/12/18 07:33:21;;;;;;;34.13;19.50;;;;;;;;;;4979791;28;20263;-79
2020/12/18 07:35:52;;;;;;;33.10;18.87;;;;;;;;;;4979185;28;20201;-78
2020/12/18 07:38:20;;;;;;;42.47;18.47;;;;;;;;;;4974883;28;20188;-78
2020/12/18 07:40:48;;;;;;;33.73;18.53;;;;;;;;;;4979774;28;20178;-80
2020/12/18 07:43:16;;;;;;;35.80;20.00;;;;;;;;;;4970531;28;20165;-80
2020/12/18 07:45:46;;;;;;;38.03;20.87;;;;;;;;;;4974901;28;20208;-79
2020/12/18 07:48:15;;;;;;;47.00;20.17;;;;;;;;;;4950651;28;20178;-78
2020/12/18 07:50:41;;;;;;;34.23;19.73;;;;;;;;;;4975915;28;20184;-78
2020/12/18 07:53:09;;;;;;;47.93;20.20;;;;;;;;;;4980312;28;20179;-80
2020/12/18 07:55:36;;;;;;;42.03;21.67;;;;;;;;;;4979708;28;20522;-79
2020/12/18 07:58:02;;;;;;;39.53;19.97;;;;;;;;;;4980260;28;20639;-79
2020/12/18 08:00:28;;;;;;;35.87;20.63;;;;;;;;;;4980064;28;20265;-79
2020/12/18 08:02:54;;;;;;;37.20;21.17;;;;;;;;;;4979627;28;20184;-79
2020/12/18 08:05:23;;;;;;;51.40;22.23;;;;;;;;;;4979690;28;20184;-79
2020/12/18 08:07:58;;;;;;;44.73;23.43;;;;;;;;;;4977716;28;20654;-78
2020/12/18 08:10:24;;;;;;;46.53;23.80;;;;;;;;;;4979379;28;20177;-79
2020/12/18 08:12:50;;;;;;;48.57;23.43;;;;;;;;;;4978183;28;20552;-79
2020/12/18 08:15:16;;;;;;;46.57;22.27;;;;;;;;;;4979663;28;20258;-81
2020/12/18 08:17:44;;;;;;;51.00;26.03;;;;;;;;;;4978036;28;20183;-80
2020/12/18 08:20:13;;;;;;;47.93;25.33;;;;;;;;;;4977879;28;20196;-79
2020/12/18 08:22:41;;;;;;;43.43;24.90;;;;;;;;;;4966075;28;20237;-80
2020/12/18 08:25:08;;;;;;;55.40;26.67;;;;;;;;;;4964443;28;20175;-80
2020/12/18 08:27:37;;;;;;;56.67;28.17;;;;;;;;;;4967382;28;20679;-79
2020/12/18 08:30:04;;;;;;;61.33;27.90;;;;;;;;;;4978895;28;20175;-80
2020/12/18 08:32:31;;;;;;;55.33;27.57;;;;;;;;;;4977572;28;20184;-79
2020/12/18 08:35:01;;;;;;;58.50;27.10;;;;;;;;;;4978326;28;20185;-79
2020/12/18 08:37:28;;;;;;;65.37;26.20;;;;;;;;;;4980067;28;20305;-80
2020/12/18 08:39:55;;;;;;;59.07;29.10;;;;;;;;;;4980252;28;20194;-80
2020/12/18 08:42:21;;;;;;;80.20;30.17;;;;;;;;;;4980103;28;20726;-80
2020/12/18 08:44:47;;;;;;;75.17;32.03;;;;;;;;;;4977488;28;20177;-80
2020/12/18 08:47:21;;;;;;;76.13;30.27;;;;;;;;;;4978253;28;20197;-80
2020/12/18 08:49:47;;;;;;;90.00;28.57;;;;;;;;;;4978272;28;20173;-80
2020/12/18 08:52:14;;;;;;;64.70;28.73;;;;;;;;;;4977874;28;20176;-80
2020/12/18 08:54:40;;;;;;;67.43;29.67;;;;;;;;;;4978361;28;20181;-80
2020/12/18 08:57:15;;;;;;;65.40;28.57;;;;;;;;;;4977811;28;20209;-79
2020/12/18 08:59:55;;;;;;;66.07;29.27;;;;;;;;;;4976406;28;20596;-79
2020/12/18 09:02:21;;;;;;;61.37;27.47;;;;;;;;;;4977832;28;20205;-79
2020/12/18 09:04:47;;;;;;;54.80;24.10;;;;;;;;;;4977671;28;20645;-79
2020/12/18 09:07:13;;;;;;;72.20;23.23;;;;;;;;;;4976468;28;20730;-79
2020/12/18 09:10:06;;;;;;;72.63;25.60;;;;;;;;;;4977361;28;20187;-79
2020/12/18 09:12:38;;;;;;;62.17;25.47;;;;;;;;;;4975469;28;20219;-81
2020/12/18 09:15:20;;;;;;;61.97;26.30;;;;;;;;;;4978233;28;20635;-79
2020/12/18 09:17:46;;;;;;;59.50;25.73;;;;;;;;;;4962840;28;20184;-80
2020/12/18 09:20:29;;;;;;;58.10;25.83;;;;;;;;;;4978067;28;20240;-80
2020/12/18 09:22:56;;;;;;;53.83;24.90;;;;;;;;;;4971917;28;20207;-79
2020/12/18 09:25:22;;;;;;;61.00;24.27;;;;;;;;;;4976974;28;20176;-80
2020/12/18 09:27:52;;;;;;;57.07;25.53;;;;;;;;;;4990214;23;20226;-77
2020/12/18 09:30:25;;;;;;;58.30;25.37;;;;;;;;;;4970564;28;20201;-78
2020/12/18 09:33:07;;;;;;;52.57;25.33;;;;;;;;;;4974547;28;20182;-79
2020/12/18 09:35:33;;;;;;;48.60;23.50;;;;;;;;;;4965145;28;20173;-77
2020/12/18 09:37:59;;;;;;;47.93;23.83;;;;;;;;;;4973874;28;20689;-77
2020/12/18 09:40:26;;;;;;;48.97;24.47;;;;;;;;;;4975544;28;20184;-78
2020/12/18 09:42:52;;;;;;;59.37;26.87;;;;;;;;;;4975529;28;20198;-78
2020/12/18 09:45:18;;;;;;;60.30;27.40;;;;;;;;;;4973855;28;20550;-78
2020/12/18 09:47:44;;;;;;;65.43;28.93;;;;;;;;;;4962653;28;20193;-79
2020/12/18 09:50:10;;;;;;;75.13;30.87;;;;;;;;;;4970133;28;20181;-79
2020/12/18 09:52:37;;;;;;;134.77;52.20;;;;;;;;;;4975105;28;20181;-78
2020/12/18 09:55:03;;;;;;;104.17;45.43;;;;;;;;;;4975222;28;20730;-78
2020/12/18 09:57:30;;;;;;;73.13;32.97;;;;;;;;;;4974913;28;20204;-76
2020/12/18 09:59:56;;;;;;;75.10;32.90;;;;;;;;;;4975024;28;20189;-76
2020/12/18 10:02:22;;;;;;;142.87;59.80;;;;;;;;;;4974794;28;20616;-77
2020/12/18 10:04:47;;;;;;;105.93;43.50;;;;;;;;;;4974769;28;20206;-76
2020/12/18 10:07:13;;;;;;;99.73;39.40;;;;;;;;;;4973251;28;20196;-77
2020/12/18 10:09:39;;;;;;;98.40;39.83;;;;;;;;;;4974561;28;20184;-77
2020/12/18 10:12:05;;;;;;;93.27;40.27;;;;;;;;;;4973743;28;20642;-77
2020/12/18 10:14:32;;;;;;;96.63;40.53;;;;;;;;;;4974758;28;20227;-77
2020/12/18 10:16:58;;;;;;;97.33;40.10;;;;;;;;;;4974902;28;20204;-77
2020/12/18 10:19:24;;;;;;;98.00;40.90;;;;;;;;;;4973389;28;20184;-76
2020/12/18 10:21:50;;;;;;;97.73;41.27;;;;;;;;;;4970899;28;20247;-78
2020/12/18 10:24:16;;;;;;;97.03;40.73;;;;;;;;;;4968779;28;20271;-76
2020/12/18 10:26:42;;;;;;;97.27;40.30;;;;;;;;;;4974747;28;20372;-77
2020/12/18 10:29:08;;;;;;;100.70;43.13;;;;;;;;;;4973388;28;20711;-76
2020/12/18 10:31:34;;;;;;;92.67;40.00;;;;;;;;;;4973417;28;20267;-78
2020/12/18 10:34:03;;;;;;;96.87;39.97;;;;;;;;;;4974881;28;20191;-76
2020/12/18 10:36:29;;;;;;;96.33;39.93;;;;;;;;;;4973152;28;20669;-77
2020/12/18 10:38:55;;;;;;;100.50;41.47;;;;;;;;;;4975454;28;20181;-77
2020/12/18 10:41:21;;;;;;;94.77;39.93;;;;;;;;;;4974343;28;20672;-76
2020/12/18 10:43:47;;;;;;;149.77;53.97;;;;;;;;;;4974979;28;20177;-76
2020/12/18 10:46:13;;;;;;;112.73;44.03;;;;;;;;;;4975253;28;20213;-76
2020/12/18 10:48:40;;;;;;;123.30;44.07;;;;;;;;;;4976672;28;20208;-76
2020/12/18 10:51:06;;;;;;;98.03;41.57;;;;;;;;;;4978639;28;20239;-77
2020/12/18 10:53:32;;;;;;;102.77;44.90;;;;;;;;;;4978713;28;20647;-76
2020/12/18 10:55:58;;;;;;;127.80;47.60;;;;;;;;;;4978414;28;20321;-77
2020/12/18 10:58:24;;;;;;;116.97;46.33;;;;;;;;;;4977932;28;20235;-76
2020/12/18 11:00:51;;;;;;;78.70;35.70;;;;;;;;;;4978043;28;20598;-77
2020/12/18 11:03:17;;;;;;;96.83;39.03;;;;;;;;;;4976519;28;20271;-77
2020/12/18 11:05:43;;;;;;;88.90;36.30;;;;;;;;;;4978187;28;20180;-77
2020/12/18 11:08:09;;;;;;;77.13;33.97;;;;;;;;;;4976855;28;20207;-77
2020/12/18 11:10:36;;;;;;;64.50;31.00;;;;;;;;;;4978541;28;20177;-77
2020/12/18 11:13:02;;;;;;;64.87;30.50;;;;;;;;;;4976903;28;20195;-77
2020/12/18 11:15:28;;;;;;;63.63;29.57;;;;;;;;;;4976709;28;20189;-76
2020/12/18 11:17:56;;;;;;;66.83;30.37;;;;;;;;;;4976590;28;20202;-77
2020/12/18 11:20:22;;;;;;;72.17;31.67;;;;;;;;;;4976318;28;20634;-75
2020/12/18 11:22:48;;;;;;;75.63;33.03;;;;;;;;;;4968471;28;20200;-77
2020/12/18 11:25:15;;;;;;;73.93;31.50;;;;;;;;;;4977906;28;20180;-78
2020/12/18 11:27:41;;;;;;;116.07;44.83;;;;;;;;;;4977516;28;20226;-78
2020/12/18 11:30:07;;;;;;;116.57;44.03;;;;;;;;;;4977769;28;20177;-79
2020/12/18 11:32:33;;;;;;;78.60;34.67;;;;;;;;;;4977833;28;20180;-78
2020/12/18 11:34:59;;;;;;;92.00;38.07;;;;;;;;;;4977427;28;20647;-79
2020/12/18 11:37:25;;;;;;;103.10;40.93;;;;;;;;;;4976295;28;20446;-78
2020/12/18 11:39:51;;;;;;;109.67;47.27;;;;;;;;;;4977712;28;20185;-78
2020/12/18 11:42:19;;;;;;;70.23;33.33;;;;;;;;;;4977251;28;20656;-78
2020/12/18 11:44:45;;;;;;;61.93;32.00;;;;;;;;;;4976021;28;20550;-77
2020/12/18 11:47:12;;;;;;;124.63;47.43;;;;;;;;;;4977132;28;20230;-77
2020/12/18 11:49:38;;;;;;;61.20;29.73;;;;;;;;;;4971857;28;20193;-77
2020/12/18 11:52:05;;;;;;;55.00;27.97;;;;;;;;;;4946766;28;20276;-78
2020/12/18 11:54:31;;;;;;;43.53;24.23;;;;;;;;;;4943503;28;20189;-77
2020/12/18 11:56:56;;;;;;;43.17;23.30;;;;;;;;;;4949362;28;20209;-79
2020/12/18 11:59:23;;;;;;;42.33;23.10;;;;;;;;;;4950982;28;20281;-78
2020/12/18 12:01:49;;;;;;;34.37;19.80;;;;;;;;;;4946723;28;20241;-78
2020/12/18 12:04:15;;;;;;;34.13;19.77;;;;;;;;;;4954036;28;20569;-79
2020/12/18 12:06:41;;;;;;;35.23;20.20;;;;;;;;;;4956164;28;20191;-77
2020/12/18 12:09:08;;;;;;;37.00;21.50;;;;;;;;;;4953565;28;20644;-79
2020/12/18 12:11:38;;;;;;;38.93;22.23;;;;;;;;;;4951097;28;20186;-79
2020/12/18 12:14:05;;;;;;;38.20;21.07;;;;;;;;;;4950520;28;20272;-77
2020/12/18 12:16:37;;;;;;;75.53;34.50;;;;;;;;;;4958901;28;20181;-78
2020/12/18 12:19:04;;;;;;;109.27;47.90;;;;;;;;;;4962710;28;20308;-79
2020/12/18 12:21:34;;;;;;;72.13;34.53;;;;;;;;;;4953906;28;20208;-79
2020/12/18 12:24:00;;;;;;;65.67;31.93;;;;;;;;;;4968894;28;20289;-77
2020/12/18 12:26:26;;;;;;;79.87;35.07;;;;;;;;;;4973809;28;20180;-78
2020/12/18 12:28:53;;;;;;;75.97;37.50;;;;;;;;;;4975017;28;20558;-77
2020/12/18 12:31:19;;;;;;;110.77;46.60;;;;;;;;;;4975473;28;20187;-78
2020/12/18 12:33:45;;;;;;;94.57;40.27;;;;;;;;;;4976552;28;20195;-77
2020/12/18 12:36:16;;;;;;;122.13;54.53;;;;;;;;;;4976251;28;20185;-77
2020/12/18 12:38:42;;;;;;;37.90;23.40;;;;;;;;;;4975975;28;20250;-76
2020/12/18 12:41:08;;;;;;;41.57;24.07;;;;;;;;;;4964370;28;20738;-77
2020/12/18 12:43:34;;;;;;;35.23;20.80;;;;;;;;;;4972011;28;20285;-76
2020/12/18 12:46:00;;;;;;;36.43;22.53;;;;;;;;;;4976225;28;20548;-76
2020/12/18 12:48:26;;;;;;;35.17;21.17;;;;;;;;;;4974520;28;20206;-77
2020/12/18 12:50:52;;;;;;;37.80;22.70;;;;;;;;;;4975894;28;20176;-77
2020/12/18 12:53:19;;;;;;;35.93;22.43;;;;;;;;;;4963174;28;20188;-77
2020/12/18 12:55:47;;;;;;;37.67;22.37;;;;;;;;;;4960331;28;20553;-77
2020/12/18 12:58:13;;;;;;;34.90;19.93;;;;;;;;;;4974403;28;20197;-76
2020/12/18 13:00:39;;;;;;;34.07;20.77;;;;;;;;;;4975592;28;20177;-75
2020/12/18 13:03:05;;;;;;;52.90;27.93;;;;;;;;;;4974309;28;20188;-75
2020/12/18 13:05:31;;;;;;;61.70;29.23;;;;;;;;;;4974545;28;20190;-77
2020/12/18 13:07:57;;;;;;;47.73;25.80;;;;;;;;;;4975503;28;20211;-77
2020/12/18 13:10:23;;;;;;;59.50;32.20;;;;;;;;;;4958666;28;20188;-78
2020/12/18 13:12:49;;;;;;;49.67;26.37;;;;;;;;;;4974962;28;20176;-78
2020/12/18 13:15:15;;;;;;;57.50;29.30;;;;;;;;;;4967791;28;20178;-77
2020/12/18 13:17:41;;;;;;;63.57;30.37;;;;;;;;;;4972908;28;20212;-77
2020/12/18 13:20:07;;;;;;;55.47;30.17;;;;;;;;;;4958068;28;20188;-76
2020/12/18 13:22:33;;;;;;;49.23;26.40;;;;;;;;;;4966415;28;20276;-77
2020/12/18 13:24:59;;;;;;;53.30;27.90;;;;;;;;;;4974086;28;20331;-77
2020/12/18 13:27:26;;;;;;;58.00;29.40;;;;;;;;;;4975154;28;20223;-77
2020/12/18 13:29:52;;;;;;;52.63;27.77;;;;;;;;;;4975356;28;20180;-77
2020/12/18 13:32:19;;;;;;;54.13;30.10;;;;;;;;;;4975505;28;20192;-76
2020/12/18 13:34:45;;;;;;;54.93;29.30;;;;;;;;;;4974990;28;20596;-76
2020/12/18 13:37:11;;;;;;;57.10;30.20;;;;;;;;;;4973908;28;20231;-77
2020/12/18 13:39:37;;;;;;;54.27;29.37;;;;;;;;;;4975026;28;20188;-77
2020/12/18 13:42:03;;;;;;;58.80;30.87;;;;;;;;;;4973561;28;20197;-77
2020/12/18 13:44:29;;;;;;;61.87;32.30;;;;;;;;;;4973776;28;20269;-77
2020/12/18 13:46:56;;;;;;;59.97;33.00;;;;;;;;;;4974891;28;20200;-77
2020/12/18 13:49:22;;;;;;;67.77;34.47;;;;;;;;;;4974811;28;20177;-76
2020/12/18 13:51:51;;;;;;;69.20;35.20;;;;;;;;;;4963323;28;20216;-77
2020/12/18 13:54:17;;;;;;;89.90;41.87;;;;;;;;;;4948376;28;20181;-76
2020/12/18 13:56:44;;;;;;;102.00;46.37;;;;;;;;;;4974802;28;20969;-77
2020/12/18 13:59:10;;;;;;;95.77;45.60;;;;;;;;;;4973429;28;20667;-77
2020/12/18 14:01:38;;;;;;;69.97;35.10;;;;;;;;;;4974687;28;20667;-77
2020/12/18 14:04:04;;;;;;;81.93;37.13;;;;;;;;;;4974523;28;20174;-77
2020/12/18 14:06:30;;;;;;;78.37;36.20;;;;;;;;;;4973445;28;20546;-77
2020/12/18 14:08:56;;;;;;;61.13;31.17;;;;;;;;;;4973338;28;20237;-76
2020/12/18 14:11:22;;;;;;;63.13;31.87;;;;;;;;;;4974470;28;20181;-76
2020/12/18 14:13:49;;;;;;;82.00;36.93;;;;;;;;;;4974623;28;20187;-77